Time;durP1;ratioP1;P1;durP2;ratioP2;P2;SDS_P1;SDS_P2;PMS_P1;PMS_P2;Temp;Humidity;BMP_temperature;BMP_pressure;BME280_temperature;BME280_humidity;BME280_pressure;Samples;Min_cycle;Max_cycle;Signal;HPM_P1;HPM_P2
2022/07/09 00:01:00;;;;;;;;;5.50;4.00;;;;;24.08;42.78;102455.81;4861904;29;46552;-62
2022/07/09 00:03:26;;;;;;;;;3.50;3.50;;;;;24.00;42.37;102455.41;4863736;29;45544;-63
2022/07/09 00:05:51;;;;;;;;;3.25;3.25;;;;;24.04;42.61;102460.59;4864605;29;45532;-62
2022/07/09 00:08:16;;;;;;;;;6.00;3.75;;;;;24.08;42.64;102460.41;4863508;29;46362;-63
2022/07/09 00:10:42;;;;;;;;;0.75;0.75;;;;;23.96;42.57;102446.53;4864707;29;45848;-62
2022/07/09 00:13:07;;;;;;;;;3.50;3.50;;;;;23.96;42.78;102446.53;4864232;29;45450;-63
2022/07/09 00:15:32;;;;;;;;;3.00;2.75;;;;;24.05;43.12;102464.19;4864470;29;45619;-63
2022/07/09 00:17:58;;;;;;;;;3.25;3.25;;;;;24.02;42.98;102467.09;4864202;29;45654;-62
2022/07/09 00:20:23;;;;;;;;;3.00;3.00;;;;;23.93;43.33;102452.19;4864349;29;45526;-63
2022/07/09 00:22:49;;;;;;;;;10.25;8.75;;;;;23.94;43.54;102463.97;4863705;29;45460;-62
2022/07/09 00:25:14;;;;;;;;;7.75;7.75;;;;;23.88;43.55;102464.38;4863257;29;46457;-62
2022/07/09 00:27:40;;;;;;;;;9.25;8.25;;;;;23.82;43.32;102452.88;4863103;29;45459;-63
2022/07/09 00:30:05;;;;;;;;;6.50;6.25;;;;;23.76;43.64;102442.28;4864158;29;46395;-62
2022/07/09 00:32:31;;;;;;;;;5.25;5.25;;;;;23.74;43.62;102449.69;4863883;29;45352;-63
2022/07/09 00:34:56;;;;;;;;;4.25;4.25;;;;;23.67;43.88;102437.38;4864351;29;46833;-62
2022/07/09 00:37:21;;;;;;;;;5.50;5.50;;;;;23.73;44.09;102453.38;4863239;29;46423;-62
2022/07/09 00:39:47;;;;;;;;;4.25;4.25;;;;;23.73;43.95;102449.78;4862925;29;46712;-63
2022/07/09 00:42:12;;;;;;;;;5.50;4.00;;;;;23.71;44.08;102447.16;4865587;29;45461;-62
2022/07/09 00:44:38;;;;;;;;;7.00;5.00;;;;;23.61;44.04;102435.06;4864162;29;45438;-62
2022/07/09 00:47:06;;;;;;;;;7.00;7.00;;;;;23.59;44.24;102435.16;4862787;29;45506;-62
2022/07/09 00:49:35;;;;;;;;;3.50;3.50;;;;;23.66;44.36;102450.16;4863380;29;46210;-62
2022/07/09 00:52:00;;;;;;;;;6.25;6.25;;;;;23.62;44.52;102443.16;4846401;29;45798;-63
2022/07/09 00:54:26;;;;;;;;;3.75;3.75;;;;;23.59;44.52;102446.06;4863826;29;45448;-62
2022/07/09 00:56:53;;;;;;;;;6.25;6.00;;;;;23.55;44.29;102447.19;4863771;29;45620;-63
2022/07/09 00:59:20;;;;;;;;;5.75;5.00;;;;;23.53;44.63;102446.41;4862986;29;45472;-62
2022/07/09 01:01:46;;;;;;;;;5.00;5.00;;;;;23.42;44.36;102429.81;4863563;29;45443;-62
2022/07/09 01:04:12;;;;;;;;;6.75;5.75;;;;;23.40;44.61;102432.66;4863793;29;45446;-62
2022/07/09 01:06:37;;;;;;;;;5.00;5.00;;;;;23.44;44.63;102436.97;4845073;29;45484;-62
2022/07/09 01:09:03;;;;;;;;;5.00;5.00;;;;;23.42;44.69;102438.91;4846389;29;45918;-63
2022/07/09 01:11:30;;;;;;;;;9.25;7.00;;;;;23.41;44.95;102433.53;4863380;29;45505;-62
2022/07/09 01:13:55;;;;;;;;;5.75;5.75;;;;;23.41;44.78;102433.53;4860284;29;45438;-62
2022/07/09 01:16:20;;;;;;;;;7.75;6.75;;;;;23.41;45.00;102431.69;4863389;29;45478;-62
2022/07/09 01:18:47;;;;;;;;;7.50;6.75;;;;;23.42;45.26;102430.72;4863006;29;45488;-62
2022/07/09 01:21:13;;;;;;;;;6.50;6.50;;;;;23.36;44.99;102431.09;4863353;29;45417;-62
2022/07/09 01:23:39;;;;;;;;;6.75;4.25;;;;;23.39;44.98;102430.00;4864876;29;45437;-62
2022/07/09 01:26:05;;;;;;;;;6.00;5.00;;;;;23.33;45.37;102422.22;4863710;29;45669;-62
2022/07/09 01:28:31;;;;;;;;;5.00;5.00;;;;;23.36;45.20;102427.50;4863006;29;45369;-62
2022/07/09 01:30:56;;;;;;;;;6.50;5.00;;;;;23.30;45.18;102423.28;4863378;29;45425;-63
2022/07/09 01:33:21;;;;;;;;;5.50;4.25;;;;;23.31;45.37;102423.19;4863583;29;45436;-62
2022/07/09 01:35:47;;;;;;;;;7.25;6.75;;;;;23.35;45.28;102418.41;4863217;29;45961;-63
2022/07/09 01:38:12;;;;;;;;;5.25;5.25;;;;;23.37;45.11;102424.69;4862465;29;45460;-63
2022/07/09 01:40:37;;;;;;;;;6.25;5.00;;;;;23.31;45.05;102416.88;4863340;29;45397;-62
2022/07/09 01:43:03;;;;;;;;;5.50;5.00;;;;;23.30;45.21;102423.28;4863249;29;45895;-63
2022/07/09 01:45:28;;;;;;;;;4.50;4.00;;;;;23.20;45.42;102414.75;4863903;29;50706;-62
2022/07/09 01:47:53;;;;;;;;;4.50;4.50;;;;;23.17;45.60;102409.53;4860636;29;45929;-62
2022/07/09 01:50:19;;;;;;;;;5.50;5.50;;;;;23.13;45.44;102406.06;4866047;29;45405;-62
2022/07/09 01:52:44;;;;;;;;;6.50;6.50;;;;;23.16;45.66;102417.78;4864270;29;45495;-62
2022/07/09 01:55:10;;;;;;;;;6.00;4.75;;;;;23.10;45.58;102419.00;4866496;29;45404;-62
2022/07/09 01:57:35;;;;;;;;;5.75;4.75;;;;;22.98;45.73;102398.78;4866282;29;45492;-62
2022/07/09 02:00:03;;;;;;;;;6.00;6.00;;;;;23.06;45.40;102411.97;4866457;29;45447;-62
2022/07/09 02:02:29;;;;;;;;;5.00;5.00;;;;;23.02;45.83;102411.28;4865572;29;45415;-62
2022/07/09 02:04:54;;;;;;;;;6.25;5.75;;;;;22.89;45.62;102383.88;4865994;29;45495;-62
2022/07/09 02:07:20;;;;;;;;;5.50;5.50;;;;;22.96;45.84;102394.41;4865763;29;46909;-62
2022/07/09 02:09:45;;;;;;;;;7.00;6.00;;;;;22.90;46.26;102384.75;4866239;29;45477;-62
2022/07/09 02:12:10;;;;;;;;;5.00;5.00;;;;;22.93;46.26;102390.88;4864284;29;45432;-62
2022/07/09 02:14:36;;;;;;;;;5.50;5.25;;;;;22.93;45.90;102393.59;4866071;29;45566;-63
2022/07/09 02:17:01;;;;;;;;;6.25;6.25;;;;;22.84;45.97;102374.22;4865342;29;45794;-62
2022/07/09 02:19:26;;;;;;;;;6.50;6.25;;;;;22.84;46.31;102383.28;4865973;29;45393;-62
2022/07/09 02:21:52;;;;;;;;;5.00;5.00;;;;;22.88;46.44;102386.69;4849496;29;45788;-62
2022/07/09 02:24:17;;;;;;;;;6.00;5.25;;;;;22.86;46.55;102389.50;4866384;29;45688;-62
2022/07/09 02:26:42;;;;;;;;;5.75;5.75;;;;;22.86;46.70;102384.06;4865779;29;45418;-62
2022/07/09 02:29:08;;;;;;;;;5.00;5.00;;;;;22.82;46.73;102381.59;4865985;29;45423;-62
2022/07/09 02:31:33;;;;;;;;;7.00;7.00;;;;;22.79;46.52;102381.75;4866037;29;45487;-62
2022/07/09 02:33:59;;;;;;;;;5.50;5.50;;;;;22.77;46.84;102376.44;4865887;29;45549;-62
2022/07/09 02:36:24;;;;;;;;;7.00;7.00;;;;;22.66;46.58;102368.88;4863664;29;46142;-62
2022/07/09 02:38:50;;;;;;;;;5.25;5.25;;;;;22.65;46.64;102366.25;4851368;29;45409;-62
2022/07/09 02:41:15;;;;;;;;;8.75;7.75;;;;;22.66;47.07;102370.72;4864750;29;45410;-62
2022/07/09 02:43:43;;;;;;;;;9.25;7.25;;;;;22.69;46.95;102381.44;4865382;29;45675;-62
2022/07/09 02:46:12;;;;;;;;;5.00;5.00;;;;;22.63;47.15;102365.47;4863253;29;46346;-62
2022/07/09 02:48:37;;;;;;;;;6.75;6.75;;;;;22.62;47.03;102369.13;4861939;29;45596;-62
2022/07/09 02:51:03;;;;;;;;;6.75;5.75;;;;;22.62;47.25;102369.13;4865187;29;45151;-62
2022/07/09 02:53:29;;;;;;;;;5.00;5.00;;;;;22.59;47.06;102372.94;4847906;29;45477;-62
2022/07/09 02:55:54;;;;;;;;;6.25;6.00;;;;;22.55;47.25;102368.63;4848825;29;45743;-62
2022/07/09 02:58:19;;;;;;;;;8.00;5.25;;;;;22.53;47.10;102374.13;4859797;29;45645;-62
2022/07/09 03:00:45;;;;;;;;;7.00;7.00;;;;;22.48;47.34;102367.22;4850551;29;45338;-62
2022/07/09 03:03:10;;;;;;;;;6.25;6.25;;;;;22.53;47.53;102374.13;4848095;29;46208;-63
2022/07/09 03:05:36;;;;;;;;;6.75;6.00;;;;;22.43;47.44;102361.16;4850990;29;45472;-62
2022/07/09 03:08:01;;;;;;;;;8.00;8.00;;;;;22.47;47.90;102368.16;4849112;29;45413;-62
2022/07/09 03:10:28;;;;;;;;;6.00;6.00;;;;;22.44;47.87;102361.06;4848950;29;45460;-62
2022/07/09 03:12:53;;;;;;;;;7.00;6.25;;;;;22.50;47.44;102376.16;4866315;29;45530;-62
2022/07/09 03:15:19;;;;;;;;;8.00;7.00;;;;;22.46;47.86;102371.88;4853545;29;45407;-62
2022/07/09 03:17:45;;;;;;;;;7.25;7.25;;;;;22.48;47.74;102376.25;4866705;29;45324;-62
2022/07/09 03:20:11;;;;;;;;;5.25;5.25;;;;;22.44;47.70;102371.97;4851437;29;45397;-63
2022/07/09 03:22:36;;;;;;;;;7.00;7.00;;;;;22.48;48.04;102384.41;4853519;29;45345;-62
2022/07/09 03:25:03;;;;;;;;;7.75;6.50;;;;;22.43;47.29;102372.03;4865930;29;45284;-63
2022/07/09 03:27:28;;;;;;;;;7.50;7.00;;;;;22.42;47.83;102381.16;4851963;29;45458;-62
2022/07/09 03:29:54;;;;;;;;;5.50;5.50;;;;;22.34;48.19;102365.28;4859212;29;45454;-62
2022/07/09 03:32:19;;;;;;;;;5.25;5.25;;;;;22.34;48.06;102381.63;4848213;29;45366;-62
2022/07/09 03:34:44;;;;;;;;;6.00;6.00;;;;;22.31;47.65;102382.66;4848364;29;46025;-62
2022/07/09 03:37:10;;;;;;;;;7.00;7.00;;;;;22.33;47.63;102386.16;4857575;29;45298;-62
2022/07/09 03:39:35;;;;;;;;;7.00;7.00;;;;;22.31;47.99;102387.22;4856698;29;45459;-62
2022/07/09 03:42:01;;;;;;;;;6.00;6.00;;;;;22.31;48.04;102390.81;4857612;29;45439;-62
2022/07/09 03:44:26;;;;;;;;;6.25;6.25;;;;;22.25;48.13;102379.34;4865517;29;45410;-62
2022/07/09 03:46:52;;;;;;;;;7.50;7.50;;;;;22.29;47.77;102397.31;4853917;29;45413;-62
2022/07/09 03:49:17;;;;;;;;;6.00;6.00;;;;;22.14;48.04;102375.41;4868511;29;45434;-62
2022/07/09 03:51:43;;;;;;;;;7.00;7.00;;;;;22.20;48.31;102383.22;4856610;29;45304;-62
2022/07/09 03:54:09;;;;;;;;;8.50;7.75;;;;;22.23;47.99;102389.44;4848094;29;46314;-62
2022/07/09 03:56:34;;;;;;;;;7.50;7.50;;;;;22.18;48.49;102392.41;4848345;29;45266;-63
2022/07/09 03:59:00;;;;;;;;;7.00;7.00;;;;;22.15;48.59;102392.59;4848293;29;45472;-63
2022/07/09 04:01:25;;;;;;;;;6.50;6.50;;;;;22.16;48.28;102402.50;4848225;29;45473;-62
2022/07/09 04:03:50;;;;;;;;;7.75;7.25;;;;;22.11;48.96;102393.72;4847872;29;45234;-62
2022/07/09 04:06:16;;;;;;;;;8.00;8.00;;;;;22.13;48.79;102408.97;4869551;29;45319;-62
2022/07/09 04:08:41;;;;;;;;;6.00;6.00;;;;;22.10;48.91;102406.47;4868000;29;45312;-62
2022/07/09 04:11:07;;;;;;;;;7.75;6.00;;;;;22.04;48.94;102401.34;4860654;29;45990;-62
2022/07/09 04:13:32;;;;;;;;;8.25;8.25;;;;;22.03;48.81;102407.75;4849664;29;46218;-62
2022/07/09 04:15:58;;;;;;;;;7.25;6.50;;;;;22.04;49.09;102408.63;4856120;29;45244;-62
2022/07/09 04:18:23;;;;;;;;;7.50;7.50;;;;;22.10;48.75;102427.31;4867213;29;45952;-62
2022/07/09 04:20:48;;;;;;;;;8.00;8.00;;;;;22.10;48.77;102422.78;4877175;29;45343;-62
2022/07/09 04:23:14;;;;;;;;;6.25;6.25;;;;;22.07;48.69;102416.59;4864179;29;45978;-62
2022/07/09 04:25:39;;;;;;;;;8.75;7.00;;;;;22.09;49.11;102423.72;4858266;29;45434;-63
2022/07/09 04:28:05;;;;;;;;;10.00;8.50;;;;;22.01;48.80;102404.22;4847950;29;45444;-62
2022/07/09 04:30:30;;;;;;;;;5.75;5.75;;;;;22.01;48.63;102402.38;4847874;29;45460;-62
2022/07/09 04:32:56;;;;;;;;;7.50;7.25;;;;;22.03;49.16;102405.00;4847250;29;45358;-62
2022/07/09 04:35:21;;;;;;;;;4.75;4.75;;;;;21.98;49.07;102410.69;4859233;29;45387;-62
2022/07/09 04:37:46;;;;;;;;;7.50;6.25;;;;;21.93;49.51;102401.91;4851576;29;45445;-63
2022/07/09 04:40:12;;;;;;;;;6.00;6.00;;;;;21.99;49.30;102408.88;4861871;29;45344;-63
2022/07/09 04:42:37;;;;;;;;;8.00;8.00;;;;;21.99;48.91;102415.19;4870336;29;45514;-62
2022/07/09 04:45:03;;;;;;;;;7.00;6.75;;;;;21.88;49.12;102392.25;4857416;29;45339;-62
2022/07/09 04:47:28;;;;;;;;;8.25;7.25;;;;;22.02;49.01;102411.44;4858301;29;45459;-62
2022/07/09 04:49:54;;;;;;;;;8.00;6.25;;;;;21.91;49.41;102392.09;4867135;29;45385;-62
2022/07/09 04:52:19;;;;;;;;;8.50;8.50;;;;;21.98;49.68;102401.66;4850962;29;46226;-63
2022/07/09 04:54:45;;;;;;;;;7.00;7.00;;;;;21.94;49.02;102394.66;4847772;29;45209;-62
2022/07/09 04:57:11;;;;;;;;;9.00;8.00;;;;;21.90;49.44;102398.50;4847284;29;45339;-63
2022/07/09 04:59:37;;;;;;;;;6.50;6.50;;;;;21.87;49.04;102398.66;4847638;29;45233;-62
2022/07/09 05:02:02;;;;;;;;;8.00;8.00;;;;;21.81;49.13;102395.31;4847013;29;45477;-62
2022/07/09 05:04:28;;;;;;;;;7.75;7.75;;;;;21.89;49.70;102404.91;4855339;29;45436;-63
2022/07/09 05:06:53;;;;;;;;;7.25;7.25;;;;;21.83;49.44;102407.00;4850228;29;45516;-63
2022/07/09 05:09:19;;;;;;;;;8.50;7.75;;;;;21.83;49.78;102403.38;4847531;29;45458;-62
2022/07/09 05:11:44;;;;;;;;;11.00;8.00;;;;;21.87;50.10;102413.16;4852768;29;45402;-63
2022/07/09 05:14:09;;;;;;;;;8.25;7.25;;;;;21.89;49.55;102399.47;4847521;29;45356;-62
2022/07/09 05:16:35;;;;;;;;;9.00;8.00;;;;;21.90;49.54;102412.97;4862059;29;45393;-63
2022/07/09 05:19:00;;;;;;;;;7.00;7.00;;;;;21.88;49.57;102414.88;4865165;29;45416;-63
2022/07/09 05:21:26;;;;;;;;;9.50;8.50;;;;;21.86;49.49;102416.81;4835544;29;46732;-62
2022/07/09 05:23:52;;;;;;;;;6.75;6.75;;;;;21.88;49.97;102414.88;4863927;29;45402;-62
2022/07/09 05:26:17;;;;;;;;;7.50;6.25;;;;;21.81;50.11;102406.19;4852160;29;45309;-62
2022/07/09 05:28:42;;;;;;;;;8.00;8.00;;;;;21.90;49.72;102420.25;4847176;29;45314;-62
2022/07/09 05:31:08;;;;;;;;;8.75;7.75;;;;;21.91;49.76;102416.56;4846584;29;46830;-62
2022/07/09 05:33:33;;;;;;;;;7.00;7.00;;;;;21.91;50.18;102405.69;4847318;29;45391;-62
2022/07/09 05:35:58;;;;;;;;;10.00;9.00;;;;;21.86;49.81;102405.06;4848328;29;45265;-62
2022/07/09 05:38:24;;;;;;;;;7.25;7.25;;;;;21.90;49.71;102414.81;4857579;29;45359;-62
2022/07/09 05:40:50;;;;;;;;;6.50;6.50;;;;;21.87;50.44;102409.53;4864360;29;45216;-62
2022/07/09 05:43:16;;;;;;;;;7.75;7.00;;;;;21.84;49.99;102410.59;4872043;29;45463;-62
2022/07/09 05:45:41;;;;;;;;;8.00;8.00;;;;;21.88;50.09;102414.00;4847627;29;45248;-63
2022/07/09 05:48:06;;;;;;;;;8.25;7.00;;;;;21.90;50.36;102414.81;4855810;29;45519;-62
2022/07/09 05:50:32;;;;;;;;;7.75;7.75;;;;;21.91;50.53;102412.00;4853499;29;46504;-62
2022/07/09 05:52:57;;;;;;;;;8.50;7.50;;;;;21.91;50.03;102408.41;4846421;29;45429;-62
2022/07/09 05:55:22;;;;;;;;;7.00;7.00;;;;;21.87;50.20;102401.38;4847694;29;45219;-63
2022/07/09 05:57:47;;;;;;;;;7.75;7.50;;;;;21.83;49.89;102397.94;4865119;29;50480;-62
2022/07/09 06:00:13;;;;;;;;;9.75;9.75;;;;;21.94;50.02;102408.25;4864483;29;46883;-62
2022/07/09 06:02:38;;;;;;;;;8.50;8.50;;;;;21.96;49.97;102414.47;4865004;29;45412;-62
2022/07/09 06:05:04;;;;;;;;;8.00;8.00;;;;;21.98;50.34;102421.56;4864734;29;45378;-62
2022/07/09 06:07:29;;;;;;;;;9.25;7.75;;;;;21.95;50.18;102413.59;4865203;29;45504;-62
2022/07/09 06:09:55;;;;;;;;;10.25;10.25;;;;;21.98;50.43;102410.69;4864911;29;45438;-62
2022/07/09 06:12:20;;;;;;;;;8.50;8.00;;;;;21.98;49.63;102402.53;4853693;29;45428;-62
2022/07/09 06:14:45;;;;;;;;;11.75;8.25;;;;;21.98;49.64;102407.13;4851707;29;45999;-62
2022/07/09 06:17:11;;;;;;;;;6.75;6.75;;;;;22.09;49.56;102417.41;4863379;29;45561;-62
2022/07/09 06:19:36;;;;;;;;;11.00;9.50;;;;;22.11;49.66;102416.34;4852002;29;45404;-62
2022/07/09 06:22:03;;;;;;;;;9.50;9.25;;;;;22.11;49.79;102415.50;4862233;29;45494;-63
2022/07/09 06:24:29;;;;;;;;;10.25;9.75;;;;;22.14;49.41;102410.75;4868424;29;45410;-62
2022/07/09 06:26:55;;;;;;;;;10.75;10.00;;;;;22.07;49.46;102403.91;4846774;29;45318;-62
2022/07/09 06:29:20;;;;;;;;;11.25;11.25;;;;;22.08;49.46;102412.94;4846405;29;46211;-63
2022/07/09 06:31:46;;;;;;;;;13.00;12.00;;;;;21.97;49.49;102400.81;4858486;29;45282;-63
2022/07/09 06:34:11;;;;;;;;;11.75;11.00;;;;;21.92;49.77;102399.28;4846316;29;45329;-62
2022/07/09 06:36:37;;;;;;;;;12.00;11.25;;;;;21.99;49.82;102415.19;4846659;29;45443;-63
2022/07/09 06:41:46;;;;;;;;;13.25;11.25;;;;;22.01;50.35;102415.09;4864324;29;45419;-63
2022/07/09 06:44:12;;;;;;;;;9.75;8.75;;;;;21.96;49.87;102407.19;4870006;29;45596;-63
2022/07/09 06:46:38;;;;;;;;;11.75;11.75;;;;;22.04;49.75;102416.78;4859752;29;45455;-62
2022/07/09 06:49:04;;;;;;;;;11.00;10.75;;;;;21.99;49.48;102417.91;4868551;29;46085;-63
2022/07/09 06:51:29;;;;;;;;;10.50;10.50;;;;;21.96;50.20;102419.91;4863064;29;45444;-63
2022/07/09 06:53:54;;;;;;;;;10.25;9.75;;;;;21.95;49.71;102420.88;4853499;29;45480;-63
2022/07/09 06:56:20;;;;;;;;;11.50;11.50;;;;;21.95;50.03;102419.06;4848964;29;45652;-63
2022/07/09 06:58:45;;;;;;;;;8.00;8.00;;;;;21.99;50.09;102417.03;4849293;29;45526;-63
2022/07/09 07:01:10;;;;;;;;;8.75;7.00;;;;;21.99;50.45;102414.31;4854582;29;45466;-63
2022/07/09 07:03:36;;;;;;;;;9.50;8.00;;;;;22.08;50.82;102419.25;4864670;29;45396;-63
2022/07/09 07:06:01;;;;;;;;;8.00;8.00;;;;;22.13;49.89;102408.97;4866382;29;45512;-66
2022/07/09 07:08:26;;;;;;;;;7.00;7.00;;;;;22.12;49.85;102392.75;4872889;29;46577;-66
2022/07/09 07:10:51;;;;;;;;;10.75;9.00;;;;;22.25;49.87;102406.56;4858756;29;45321;-66
2022/07/09 07:13:17;;;;;;;;;12.75;10.75;;;;;22.21;49.77;102401.28;4863091;29;45505;-66
2022/07/09 07:15:44;;;;;;;;;7.25;7.25;;;;;22.21;49.97;102397.69;4859897;29;45417;-66
2022/07/09 07:18:09;;;;;;;;;11.50;10.50;;;;;22.28;49.22;102406.41;4859279;29;46209;-66
2022/07/09 07:20:35;;;;;;;;;13.25;11.00;;;;;22.23;49.00;102393.03;4862682;29;45322;-65
2022/07/09 07:23:00;;;;;;;;;10.25;8.50;;;;;22.32;49.61;102411.63;4867781;29;45372;-63
2022/07/09 07:25:26;;;;;;;;;8.00;8.00;;;;;22.38;49.69;102405.81;4881886;29;45451;-65
2022/07/09 07:27:51;;;;;;;;;9.75;9.75;;;;;22.41;49.60;102401.19;4844848;29;46906;-66
2022/07/09 07:30:17;;;;;;;;;9.75;9.75;;;;;22.36;49.18;102390.56;4859577;29;45425;-66
2022/07/09 07:32:42;;;;;;;;;7.50;7.50;;;;;22.43;49.81;102396.53;4871085;29;45533;-66
2022/07/09 07:35:07;;;;;;;;;9.75;8.25;;;;;22.56;48.98;102408.47;4860695;29;45363;-65
2022/07/09 07:37:33;;;;;;;;;11.00;11.00;;;;;22.63;49.34;102414.44;4853657;29;45828;-64
2022/07/09 07:39:58;;;;;;;;;10.25;10.25;;;;;22.65;49.11;102412.50;4859224;29;45493;-65
2022/07/09 07:42:24;;;;;;;;;9.50;8.00;;;;;22.53;49.45;102393.19;4857655;29;45836;-65
2022/07/09 07:44:49;;;;;;;;;10.00;9.00;;;;;22.66;48.94;102408.84;4853618;29;45513;-65
2022/07/09 07:47:14;;;;;;;;;7.75;7.75;;;;;22.75;49.22;102416.47;4842364;29;46849;-65
2022/07/09 07:49:40;;;;;;;;;9.50;9.50;;;;;22.78;49.18;102412.69;4863361;29;45407;-65
2022/07/09 07:52:06;;;;;;;;;7.75;7.25;;;;;22.79;48.80;102395.38;4861024;29;45409;-65
2022/07/09 07:54:31;;;;;;;;;6.50;6.50;;;;;22.91;48.28;102414.59;4848190;29;45570;-65
2022/07/09 07:56:57;;;;;;;;;7.50;7.50;;;;;22.93;47.97;102415.38;4857346;29;45809;-65
2022/07/09 07:59:22;;;;;;;;;8.50;8.50;;;;;22.91;48.42;102398.28;4874837;29;45575;-65
2022/07/09 08:01:47;;;;;;;;;8.50;7.50;;;;;23.05;48.65;102416.50;4860272;29;45495;-65
2022/07/09 08:04:13;;;;;;;;;8.00;7.00;;;;;23.06;48.24;102401.06;4858466;29;45992;-65
2022/07/09 08:06:38;;;;;;;;;8.00;6.50;;;;;23.17;47.92;102408.63;4861710;29;46582;-65
2022/07/09 08:09:03;;;;;;;;;7.00;7.00;;;;;23.19;47.49;102407.56;4872084;29;45438;-66
2022/07/09 08:11:29;;;;;;;;;7.25;6.25;;;;;23.26;47.60;102408.97;4860703;29;45875;-65
2022/07/09 08:13:54;;;;;;;;;6.75;6.75;;;;;23.34;47.10;102407.63;4859123;29;45472;-66
2022/07/09 08:16:20;;;;;;;;;6.00;6.00;;;;;23.39;47.61;102408.22;4860007;29;45559;-66
2022/07/09 08:18:46;;;;;;;;;7.50;7.00;;;;;23.47;47.58;102401.34;4866434;29;45249;-66
2022/07/09 08:21:11;;;;;;;;;6.50;6.50;;;;;23.56;47.51;102404.50;4851907;29;45327;-65
2022/07/09 08:23:53;;;;;;;;;7.50;6.75;;;;;23.61;47.13;102396.91;4851156;29;45768;-66
2022/07/09 08:26:26;;;;;;;;;6.50;6.50;;;;;23.69;47.37;102391.84;4852499;29;45629;-65
2022/07/09 08:28:52;;;;;;;;;7.50;7.50;;;;;23.77;46.69;102386.81;4861807;29;45377;-65
2022/07/09 08:31:19;;;;;;;;;8.00;6.00;;;;;23.84;46.80;102379.16;4863603;29;45904;-65
2022/07/09 08:33:45;;;;;;;;;6.75;6.75;;;;;23.91;46.53;102385.97;4855592;29;45424;-65
2022/07/09 08:36:10;;;;;;;;;6.75;6.50;;;;;23.92;46.41;102379.50;4853087;29;46168;-66
2022/07/09 08:38:36;;;;;;;;;6.00;5.00;;;;;23.96;46.67;102372.91;4849744;29;45382;-65
2022/07/09 08:41:03;;;;;;;;;7.50;6.75;;;;;24.06;45.80;102392.31;4841038;29;45396;-65
2022/07/09 08:43:32;;;;;;;;;6.00;6.00;;;;;24.13;45.58;102387.34;4848531;29;45569;-65
2022/07/09 08:45:58;;;;;;;;;8.75;8.50;;;;;24.08;46.30;102376.72;4852774;29;46183;-65
2022/07/09 08:48:23;;;;;;;;;8.00;6.25;;;;;24.09;46.14;102370.28;4838151;29;45464;-66
2022/07/09 08:50:51;;;;;;;;;4.00;3.25;;;;;24.16;46.03;102373.50;4868337;29;45298;-65
2022/07/09 08:53:18;;;;;;;;;7.00;5.00;;;;;24.30;46.49;102381.66;4857912;29;45586;-65
2022/07/09 08:55:45;;;;;;;;;5.50;4.50;;;;;24.37;45.58;102374.84;4854714;29;46696;-65
2022/07/09 08:58:13;;;;;;;;;7.25;5.75;;;;;24.34;45.21;102366.84;4855536;29;45336;-65
2022/07/09 09:00:39;;;;;;;;;7.50;7.00;;;;;24.47;44.88;102379.69;4856863;29;45547;-65
2022/07/09 09:03:05;;;;;;;;;5.25;5.25;;;;;24.51;45.54;102373.94;4856847;29;45318;-65
2022/07/09 09:05:30;;;;;;;;;5.75;5.00;;;;;24.54;44.39;102373.72;4846769;29;46439;-65
2022/07/09 09:07:55;;;;;;;;;5.75;3.75;;;;;24.57;44.97;102372.66;4861071;29;45437;-65
2022/07/09 09:10:25;;;;;;;;;5.25;4.00;;;;;24.62;44.23;102373.22;4844343;29;45283;-63
2022/07/09 09:12:58;;;;;;;;;6.50;5.00;;;;;24.60;43.99;102364.28;4845884;29;45500;-62
2022/07/09 09:15:23;;;;;;;;;4.00;4.00;;;;;24.65;43.59;102372.16;4852881;29;46177;-62
2022/07/09 09:17:49;;;;;;;;;4.25;1.75;;;;;24.68;44.40;102363.78;4864934;29;45359;-62
2022/07/09 09:20:15;;;;;;;;;6.75;5.00;;;;;24.72;44.42;102363.44;4849449;29;45385;-63
2022/07/09 09:22:45;;;;;;;;;5.25;5.00;;;;;24.76;44.38;102366.88;4852852;29;45455;-63
2022/07/09 09:25:18;;;;;;;;;5.00;5.00;;;;;24.76;43.65;102358.69;4861821;29;46685;-62
2022/07/09 09:27:55;;;;;;;;;5.75;4.25;;;;;24.80;43.82;102356.63;4846815;29;45246;-63
2022/07/09 09:30:21;;;;;;;;;4.75;3.50;;;;;24.84;43.46;102355.41;4852090;29;45555;-63
2022/07/09 09:32:57;;;;;;;;;4.75;4.75;;;;;24.84;43.72;102347.22;4846542;29;45558;-66
2022/07/09 09:35:32;;;;;;;;;4.75;4.75;;;;;24.90;43.21;102355.00;4847046;29;45275;-66
2022/07/09 09:37:58;;;;;;;;;5.25;3.75;;;;;24.92;43.87;102351.19;4847029;29;45261;-67
2022/07/09 09:40:24;;;;;;;;;5.25;4.00;;;;;24.90;43.07;102355.00;4854957;29;45285;-65
2022/07/09 09:42:49;;;;;;;;;5.75;4.75;;;;;24.95;43.51;102361.91;4862773;29;45551;-65
2022/07/09 09:45:16;;;;;;;;;3.75;3.75;;;;;24.95;43.23;102356.44;4865137;29;45431;-65
2022/07/09 09:47:47;;;;;;;;;5.00;5.00;;;;;25.02;43.57;102367.81;4850106;29;45616;-61
2022/07/09 09:50:17;;;;;;;;;4.50;3.75;;;;;25.04;43.62;102359.53;4869698;29;45438;-62
2022/07/09 09:52:50;;;;;;;;;6.00;5.00;;;;;25.07;43.59;102354.72;4851674;29;45399;-62
2022/07/09 09:55:17;;;;;;;;;6.00;4.25;;;;;25.13;43.35;102367.97;4846643;29;46646;-62
2022/07/09 09:57:42;;;;;;;;;5.75;5.00;;;;;25.14;43.69;102358.81;4846524;29;45264;-62
2022/07/09 10:00:10;;;;;;;;;3.50;3.50;;;;;25.20;43.57;102357.50;4852281;29;45524;-62
2022/07/09 10:02:38;;;;;;;;;3.75;3.75;;;;;25.25;43.30;102359.91;4844065;29;45628;-62
2022/07/09 10:05:04;;;;;;;;;4.00;4.00;;;;;25.31;43.24;102359.53;4849720;29;46501;-62
2022/07/09 10:07:32;;;;;;;;;6.75;5.75;;;;;25.33;43.43;102354.84;4849313;29;45324;-62
2022/07/09 10:09:58;;;;;;;;;5.00;5.00;;;;;25.40;44.06;102364.34;4860853;29;45502;-62
2022/07/09 10:12:28;;;;;;;;;7.75;6.25;;;;;25.46;42.82;102360.28;4864387;29;45550;-62
2022/07/09 10:14:54;;;;;;;;;6.25;5.75;;;;;25.46;43.45;102347.53;4849613;29;45292;-62
2022/07/09 10:17:19;;;;;;;;;7.50;6.00;;;;;25.54;43.17;102351.56;4861858;29;45336;-62
2022/07/09 10:19:54;;;;;;;;;6.00;6.00;;;;;25.58;42.85;102350.38;4860371;29;45480;-62
2022/07/09 10:22:40;;;;;;;;;5.00;5.00;;;;;25.61;43.43;102352.88;4858459;29;45490;-62
2022/07/09 10:25:10;;;;;;;;;5.00;5.00;;;;;25.63;43.86;102340.84;4870800;29;45364;-62
2022/07/09 10:27:43;;;;;;;;;7.75;6.25;;;;;25.72;42.94;102349.38;4866293;29;45499;-61
2022/07/09 10:30:31;;;;;;;;;5.75;5.25;;;;;25.70;42.42;102341.28;4854568;29;45338;-71
2022/07/09 10:33:08;;;;;;;;;4.75;4.75;;;;;25.77;43.19;102344.47;4861774;29;45368;-71
2022/07/09 10:35:47;;;;;;;;;7.75;6.25;;;;;25.83;43.57;102352.22;4849457;29;45227;-71
2022/07/09 10:38:13;;;;;;;;;6.75;6.50;;;;;25.83;42.92;102336.69;4849271;29;45353;-71
2022/07/09 10:40:40;;;;;;;;;5.25;5.25;;;;;25.91;42.10;102337.97;4867311;29;45308;-72
2022/07/09 10:43:05;;;;;;;;;3.50;3.50;;;;;25.85;42.59;102321.03;4856392;29;45525;-71
2022/07/09 10:45:42;;;;;;;;;4.50;4.50;;;;;25.97;41.92;102330.25;4858180;29;45289;-72
2022/07/09 10:48:09;;;;;;;;;1.00;1.00;;;;;26.02;42.39;102325.31;4863524;29;45166;-72
2022/07/09 10:50:40;;;;;;;;;6.75;6.00;;;;;26.06;42.91;102328.69;4855796;29;45377;-73
2022/07/09 10:53:06;;;;;;;;;5.75;5.75;;;;;26.06;42.04;102329.59;4850192;29;45570;-72
2022/07/09 10:55:32;;;;;;;;;5.00;5.00;;;;;26.09;41.99;102323.00;4849273;29;46210;-72
2022/07/09 10:57:58;;;;;;;;;5.50;5.50;;;;;26.11;42.53;102306.47;4848849;29;45343;-72
2022/07/09 11:00:25;;;;;;;;;5.00;5.00;;;;;26.21;42.98;102319.38;4853335;29;45218;-72
2022/07/09 11:02:55;;;;;;;;;5.75;5.75;;;;;26.21;42.46;102310.25;4854084;29;45632;-73
2022/07/09 11:05:21;;;;;;;;;3.25;3.25;;;;;26.25;41.88;102309.06;4855221;29;46268;-72
2022/07/09 11:08:06;;;;;;;;;6.00;5.00;;;;;26.28;41.81;102311.56;4854385;29;45564;-73
2022/07/09 11:10:35;;;;;;;;;5.25;5.25;;;;;26.28;41.69;102305.19;4867106;29;45390;-72
2022/07/09 11:13:03;;;;;;;;;3.75;3.75;;;;;26.27;40.84;102298.88;4866569;29;45360;-72
2022/07/09 11:15:33;;;;;;;;;5.75;5.50;;;;;26.29;41.71;102301.50;4853367;29;45343;-72
2022/07/09 11:18:04;;;;;;;;;4.25;4.25;;;;;26.35;41.06;102298.31;4857094;29;45582;-72
2022/07/09 11:20:41;;;;;;;;;3.75;3.75;;;;;26.37;41.04;102290.84;4866090;29;45421;-72
2022/07/09 11:23:10;;;;;;;;;3.00;2.25;;;;;26.38;41.29;102293.47;4873037;29;45247;-72